Flight Track Log - Related Links

Times and Time Zones

All times are in EDT time to prevent confusion due to time zone crossing. See the UCA3597 flight status page for this flight to view local times or setup timezone preferences in your user account.

Time Position Orientation Groundspeed Altitude Reporting Facility
EDT Latitude Longitude Course Direction KTS MPH feet Rate Location/Type
Sat 07:04:48 PM 42.1108 -76.0292 211° Southwest 205 236 5,600  Level New York Center
Sat 07:05:49 PM 42.0672 -76.0731 217° Southwest 205 236 7,300 1,475 Climbing New York Center
Sat 07:06:50 PM 42.0175 -76.1167 213° Southwest 210 242 8,600 1,289 Climbing New York Center
Sat 07:07:50 PM 41.9617 -76.1511 205° Southwest 218 251 9,900 1,424 Climbing New York Center
Sat 07:08:48 PM 41.9017 -76.1908 206° Southwest 223 257 11,400 1,373 Climbing New York Center
Sat 07:09:00 PM 41.8338 -76.1577 211° Southwest  Level Estimated
Sat 07:09:48 PM 41.8500 -76.2256 207° Southwest 223 257 12,600  Level New York Center
Sat 07:10:50 PM 41.7922 -76.2597 204° Southwest 223 257 13,600 1,082 Climbing New York Center
Sat 07:11:50 PM 41.7431 -76.2919 206° Southwest 223 257 14,800 1,190 Climbing New York Center
Sat 07:12:51 PM 41.6786 -76.3339 206° Southwest 223 257 16,000 605 Climbing New York Center
Sat 07:13:49 PM 41.6100 -76.3725 203° Southwest 249 287 16,000  Level New York Center
Sat 07:14:50 PM 41.5369 -76.4217 207° Southwest 279 321 16,000  Level New York Center
Sat 07:15:49 PM 41.4703 -76.4633 205° Southwest 295 339 16,000  Level New York Center
Sat 07:16:49 PM 41.3953 -76.5094 205° Southwest 300 345 16,000  Level New York Center
Sat 07:17:48 PM 41.3136 -76.5606 205° Southwest 300 345 16,000  Level New York Center
Sat 07:18:49 PM 41.2383 -76.6092 206° Southwest 305 351 16,000  Level New York Center
Sat 07:19:50 PM 41.1611 -76.6550 204° Southwest 305 351 16,000  Level New York Center
Sat 07:20:50 PM 41.0856 -76.7036 206° Southwest 305 351 16,000  Level New York Center
Sat 07:21:48 PM 41.0103 -76.7519 206° Southwest 305 351 16,000  Level New York Center
Sat 07:22:49 PM 40.9350 -76.7975 205° Southwest 305 351 16,000  Level New York Center
Sat 07:23:50 PM 40.8619 -76.8433 205° Southwest 305 351 16,000  Level New York Center
Sat 07:24:50 PM 40.7844 -76.8883 204° Southwest 305 351 16,000  Level New York Center
Sat 07:25:48 PM 40.7061 -76.9142 194° South 299 344 16,000  Level New York Center
Sat 07:26:48 PM 40.6256 -76.9372 192° South 299 344 16,000  Level New York Center
Sat 07:27:48 PM 40.5450 -76.9628 194° South 299 344 16,000  Level New York Center
Sat 07:28:49 PM 40.4667 -76.9858 193° South 299 344 16,000  Level New York Center
Sat 07:29:48 PM 40.3861 -77.0111 193° South 299 344 16,000 -504 Level New York Center
Sat 07:30:48 PM 40.3056 -77.0367 194° South 304 350 15,000 -1,283 Descending New York Center
Sat 07:32:55 PM 40.1333 -77.0833 192° South 317 365 12,000 -1,444 Descending Potomac TRACON
Sat 07:33:55 PM 40.0500 -77.1167 197° South 303 349 10,500 -1,400 Descending Potomac TRACON
Sat 07:34:55 PM 39.9833 -77.1500 201° Southwest 287 330 9,200 -714 Descending Potomac TRACON
Sat 07:36:01 PM 39.9000 -77.1833 197° South 270 311 9,000 -95 Descending Potomac TRACON
Sat 07:37:01 PM 39.8167 -77.2167 197° South 263 303 9,000 -53 Level Potomac TRACON
Sat 07:37:55 PM 39.7667 -77.2333 194° South 263 303 8,900 -474 Descending Potomac TRACON
Sat 07:38:55 PM 39.7000 -77.2500 191° South 270 311 8,100 -700 Descending Potomac TRACON
Sat 07:39:55 PM 39.6167 -77.2833 197° South 272 313 7,500 -550 Descending Potomac TRACON
Sat 07:40:55 PM 39.5500 -77.3167 201° Southwest 268 308 7,000 -238 Descending Potomac TRACON
Sat 07:42:01 PM 39.4667 -77.3500 197° South 259 298 7,000  Level Potomac TRACON
Sat 07:42:55 PM 39.4167 -77.3667 194° South 252 290 7,000  Level Potomac TRACON
Sat 07:43:55 PM 39.3500 -77.3667 180° South 250 288 7,000 -350 Level Potomac TRACON
Sat 07:44:55 PM 39.2833 -77.3667 180° South 249 287 6,300 -1,500 Descending Potomac TRACON
Sat 07:45:55 PM 39.2167 -77.3667 180° South 232 267 4,000 -1,211 Descending Potomac TRACON
Sat 07:46:49 PM 39.1667 -77.3667 180° South 221 254 4,000  Level Potomac TRACON
Sat 07:47:49 PM 39.0833 -77.3500 171° South 238 274 4,000 -381 Level Potomac TRACON
Sat 07:48:55 PM 39.0167 -77.3500 180° South 252 290 3,200 -500 Descending Potomac TRACON
Sat 07:49:49 PM 38.9500 -77.3500 180° South 248 285 3,000 -316 Descending Potomac TRACON
Sat 07:50:49 PM 38.8833 -77.3667 191° South 222 255 2,600 -500 Descending Potomac TRACON
Sat 07:51:49 PM 38.8167 -77.3667 180° South 230 265 2,000 -286 Descending Potomac TRACON
Sat 07:52:55 PM 38.8333 -77.4333 288° West 218 251 2,000 -286 Level Potomac TRACON
Sat 07:53:55 PM 38.8667 -77.4333 360° North 140 161 1,400 -650 Descending Potomac TRACON
Sat 07:54:55 PM 38.9000 -77.4333 360° North 129 148 700 -700 Descending Potomac TRACON
Sat 07:56:00 PM 38.9333 -77.4500 349° North  Level FlightAware Approximate
Sat 08:03:00 PM 38.9474 -77.4599 349° North  Level Estimated
Sat 08:04:00 PM 38.9474 -77.4599 349° North  Level Estimated

Login

Don't have an account? Register now (free) for customized features, flight alerts, and more!